Aviation Digital Data Service (ADDS)

Output produced by METARs form (0744 UTC 24 May 2018)
found at http://www.aviationweather.gov/adds/metars/
 
TAF AMD KIAB 240445Z 2404/2508 16009KT 9999 SCT120 SCT200 QNH3003INS 
     TEMPO 2404/2406 8000 -TSRA BKN050CB 
     BECMG 2414/2415 16012KT 9999 SCT050 QNH2995INS TX33/2421Z TN19/2411Z
       
KIAD 240535Z 2406/2512 00000KT P6SM SCT250 
     FM241400 35006KT P6SM FEW250 
     FM250000 VRB03KT P6SM SKC
       
KIAG 240530Z 2406/2506 20004KT P6SM SKC 
     FM240800 VRB03KT P6SM SKC 
     FM241500 22006KT P6SM SKC 
     FM241900 22012G18KT P6SM SKC 
     FM250000 22010KT P6SM SKC 
     FM250400 22007KT P6SM SCT250
       
KIAH 240520Z 2406/2512 VRB04KT P6SM FEW250 
     FM241200 VRB03KT P6SM SCT020 
     FM241700 11006KT P6SM VCSH SCT040 
     PROB30 2418/2420 TSRA BKN035CB 
     FM250000 12007KT P6SM BKN250 
     FM250300 15004KT P6SM SCT250
       
KICT 240520Z 2406/2506 17008KT P6SM VCTS SCT120CB BKN200 
     FM240800 17008KT P6SM SCT150 BKN200 
     FM241700 18015G23KT P6SM SCT200 
     FM250200 17011KT P6SM SCT200
       
KIDA 240520Z 2406/2506 VRB05KT P6SM OVC090 
     FM241800 21011KT P6SM VCTS SCT100CB BKN150 
     FM250300 VRB05KT P6SM SKC
       
KIFP 240520Z 2406/2506 16012KT P6SM SKC 
     FM241400 20008KT P6SM SKC 
     FM242200 21014G22KT P6SM SKC 
     FM250200 16011KT P6SM SKC
       
KILG 240522Z 2406/2506 32006KT P6SM SKC 
     FM241300 36008KT P6SM SKC 
     FM241900 VRB04KT P6SM SKC 
     FM250000 16008KT P6SM SKC 
     FM250100 20004KT P6SM SKC
       
KILM 240520Z 2406/2506 26006KT P6SM VCTS BKN070CB 
     FM241100 33004KT P6SM VCTS BKN060CB 
     FM241700 11009KT P6SM VCTS BKN090CB 
     FM242100 11009KT P6SM BKN120 
     FM250300 10005KT P6SM BKN250
       
KILN 240540Z 2406/2506 07004KT P6SM SKC 
     TEMPO 2409/2412 5SM BR 
     FM241400 09007KT P6SM SCT250 
     FM250000 VRB04KT P6SM SKC
       
KIND 240525Z 2406/2512 VRB03KT P6SM FEW250
       
TAF KINS 240701Z 2407/2513 13009KT 9999 SKC QNH2990INS 
     BECMG 2417/2418 10015G20KT 9999 SKC QNH2999INS 
     BECMG 2421/2422 15018G30KT 9999 FEW110 510002 QNH2991INS 
     BECMG 2502/2503 13009KT 9999 SKC QNH2989INS TX34/2421Z TN18/2412Z
       
KINT 240522Z 2406/2506 03005KT P6SM FEW030 SCT070 BKN100 
     TEMPO 2410/2413 BKN030 
     FM241300 05007KT P6SM SCT035 
     FM241900 08007KT P6SM FEW040 SCT250 
     FM250500 00000KT P6SM SCT250
       
KINW 240538Z 2406/2506 23011KT P6SM SKC 
     FM240700 12007KT P6SM SKC 
     FM242000 20010G20KT P6SM SKC 
     FM250200 22011KT P6SM SKC
       
KIPL 240539Z 2406/2506 20006KT P6SM SKC 
     FM241800 15008KT P6SM SKC 
     FM250100 22012KT P6SM SKC
       
KIPT 240528Z 2406/2506 00000KT P6SM SKC 
     FM241330 28005KT P6SM SKC
       
KISM 240520Z 2406/2506 VRB02KT P6SM FEW090 
     FM241400 11004KT P6SM FEW030 SCT250 
     FM241800 10010KT P6SM VCTS SCT035CB SCT070 BKN250 
     FM242200 10010KT P6SM SCT060 BKN120 
     FM250000 10006KT P6SM FEW060 BKN090 BKN250
       
KISN 240644Z 2407/2506 14006KT P6SM FEW080 SCT100 SCT120 
     FM241200 21008KT P6SM BKN060 BKN250 
     FM241800 24009KT P6SM VCSH BKN050 BKN140
       
KISO 240547Z 2406/2506 VRB03KT P6SM SCT020 BKN090 
     FM240800 03004KT P6SM FEW007 SCT020 
     FM241300 05007KT P6SM SCT250 
     FM241800 07007KT P6SM SCT050 
     FM250000 09003KT P6SM SCT250 AMD LTD TO CLD VIS AND WIND
       
KISP 240522Z 2406/2506 32005KT P6SM SKC 
     FM241400 35010KT P6SM SKC 
     FM241800 VRB05KT P6SM SKC 
     FM242000 16008KT P6SM SKC 
     FM242200 20006KT P6SM SKC 
     FM250000 22004KT P6SM FEW007
       
KITH 240529Z 2406/2506 32007KT P6SM SKC 
     FM250000 VRB02KT P6SM SKC
       
KIWA 240539Z 2406/2506 26007KT P6SM SKC 
     FM240900 12005KT P6SM SKC 
     FM242000 25007KT P6SM SKC AMD LTD TO CLD VIS AND WIND 2406/2413
       
KIXD 240520Z 2406/2506 15006KT P6SM SCT250 
     FM241700 16010KT P6SM SCT050 BKN250 
     FM250100 16006KT P6SM SCT250